Time;durP1;ratioP1;P1;durP2;ratioP2;P2;SDS_P1;SDS_P2;PMS_P1;PMS_P2;Temp;Humidity;BMP_temperature;BMP_pressure;BME280_temperature;BME280_humidity;BME280_pressure;Samples;Min_cycle;Max_cycle;Signal;HPM_P1;HPM_P2
2022/08/15 00:00:12;;;;;;;8.80;6.90;;;22.60;88.30;;;;;;5089594;28;20186;-54
2022/08/15 00:02:44;;;;;;;8.32;7.45;;;22.70;87.80;;;;;;5078937;28;20036;-55
2022/08/15 00:05:16;;;;;;;9.80;8.05;;;22.70;87.70;;;;;;5074504;28;20040;-57
2022/08/15 00:07:42;;;;;;;15.25;8.02;;;22.70;88.10;;;;;;5081185;28;20445;-55
2022/08/15 00:10:08;;;;;;;;;;;22.60;88.30;;;;;;5092396;28;20032;-56
2022/08/15 00:12:35;;;;;;;12.70;8.63;;;22.60;88.50;;;;;;5060135;28;19923;-55
2022/08/15 00:15:03;;;;;;;9.13;8.15;;;22.60;88.30;;;;;;5089693;28;20071;-54
2022/08/15 00:17:29;;;;;;;14.07;8.30;;;22.50;88.40;;;;;;5092580;28;20115;-53
2022/08/15 00:19:54;;;;;;;;;;;22.50;88.60;;;;;;5087409;28;20119;-53
2022/08/15 00:22:20;;;;;;;9.00;7.30;;;22.60;88.90;;;;;;5087823;28;19923;-51
2022/08/15 00:24:49;;;;;;;8.60;7.57;;;22.60;88.20;;;;;;5083935;28;20036;-56
2022/08/15 00:27:15;;;;;;;10.48;7.35;;;22.60;87.80;;;;;;5078550;28;20040;-53
2022/08/15 00:29:41;;;;;;;;;;;22.70;87.70;;;;;;5085594;28;20032;-56
2022/08/15 00:32:13;;;;;;;8.17;7.23;;;22.80;88.60;;;;;;5076891;28;19920;-53
2022/08/15 00:34:39;;;;;;;7.38;6.80;;;22.80;87.30;;;;;;5071523;28;20067;-55
2022/08/15 00:37:05;;;;;;;;;;;22.90;87.10;;;;;;5093007;28;20074;-55
2022/08/15 00:39:32;;;;;;;10.57;9.18;;;22.90;88.60;;;;;;5086190;28;20282;-57
2022/08/15 00:42:00;;;;;;;9.02;8.10;;;22.80;89.20;;;;;;5090928;28;20063;-56
2022/08/15 00:44:32;;;;;;;9.43;8.63;;;22.70;89.40;;;;;;5078931;28;20036;-57
2022/08/15 00:47:01;;;;;;;7.65;7.05;;;22.70;89.80;;;;;;5072495;28;20165;-51
2022/08/15 00:49:30;;;;;;;7.57;6.88;;;22.70;89.90;;;;;;5079587;28;20126;-54
2022/08/15 00:52:07;;;;;;;11.82;7.63;;;22.70;90.10;;;;;;5075392;28;20035;-51
2022/08/15 00:54:39;;;;;;;8.55;6.63;;;22.70;90.70;;;;;;5087904;28;20032;-56
2022/08/15 00:57:12;;;;;;;7.78;7.03;;;22.70;90.60;;;;;;5086103;28;20059;-53
2022/08/15 00:59:43;;;;;;;6.78;6.10;;;22.70;90.70;;;;;;5074142;28;20044;-54
2022/08/15 01:02:14;;;;;;;13.02;8.18;;;22.60;90.60;;;;;;5079936;28;20314;-56
2022/08/15 01:04:40;;;;;;;11.00;7.70;;;22.60;91.00;;;;;;5072695;28;20114;-56
2022/08/15 01:07:06;;;;;;;;;;;22.30;91.40;;;;;;5088068;28;20044;-55
2022/08/15 01:09:32;;;;;;;8.02;7.35;;;22.20;92.00;;;;;;5078505;28;19970;-53
2022/08/15 01:12:10;;;;;;;8.65;7.50;;;22.10;91.90;;;;;;5084845;28;20040;-55
2022/08/15 01:14:38;;;;;;;8.70;7.43;;;22.10;92.00;;;;;;5066703;28;20044;-54
2022/08/15 01:17:06;;;;;;;9.13;7.10;;;22.10;92.10;;;;;;5086831;28;20044;-53
2022/08/15 01:19:42;;;;;;;7.07;6.55;;;22.10;92.00;;;;;;5090084;28;20384;-56
2022/08/15 01:22:08;;;;;;;7.93;7.07;;;22.10;91.90;;;;;;5075888;28;20049;-54
2022/08/15 01:24:45;;;;;;;;;;;22.20;91.80;;;;;;5076004;28;20559;-54
2022/08/15 01:27:12;;;;;;;8.02;7.22;;;22.20;91.90;;;;;;5084850;28;19924;-56
2022/08/15 01:29:37;;;;;;;6.70;6.20;;;22.20;91.60;;;;;;5083877;28;20066;-52
2022/08/15 01:32:03;;;;;;;;;;;22.20;91.50;;;;;;5081886;28;20491;-52
2022/08/15 01:34:29;;;;;;;8.38;6.70;;;22.20;91.70;;;;;;5078864;28;19916;-51
2022/08/15 01:36:54;;;;;;;8.27;6.90;;;22.20;91.50;;;;;;5077439;28;20107;-50
2022/08/15 01:39:24;;;;;;;;;;;22.20;92.10;;;;;;5077019;28;20501;-56
2022/08/15 01:42:09;;;;;;;7.22;6.60;;;22.20;92.50;;;;;;5087928;28;19916;-56
2022/08/15 01:44:47;;;;;;;8.77;7.72;;;22.20;91.90;;;;;;5075080;28;20395;-53
2022/08/15 01:47:18;;;;;;;9.07;7.38;;;22.00;91.70;;;;;;5082687;28;20096;-53
2022/08/15 01:50:04;;;;;;;8.90;8.05;;;21.90;91.90;;;;;;5089170;28;20047;-54
2022/08/15 01:53:00;;;;;;;7.85;7.15;;;21.90;92.30;;;;;;5085890;28;20087;-53
2022/08/15 01:55:52;;;;;;;7.68;6.97;;;21.90;92.60;;;;;;5073507;28;20527;-52
2022/08/15 01:58:19;;;;;;;9.98;8.98;;;21.80;92.60;;;;;;5083837;28;20045;-56
2022/08/15 02:00:51;;;;;;;7.88;7.18;;;21.80;92.30;;;;;;5075758;28;20093;-52
2022/08/15 02:03:17;;;;;;;8.57;7.88;;;21.80;92.40;;;;;;5081216;28;20055;-53
2022/08/15 02:05:43;;;;;;;;;;;21.70;92.30;;;;;;5083074;28;20115;-53
2022/08/15 02:08:08;;;;;;;9.82;7.68;;;21.60;92.50;;;;;;5076752;28;19916;-52
2022/08/15 02:10:34;;;;;;;;;;;21.60;92.40;;;;;;5076244;28;20036;-56
2022/08/15 02:13:00;;;;;;;9.50;7.47;;;21.60;92.80;;;;;;5086319;28;19924;-54
2022/08/15 02:15:26;;;;;;;8.98;8.18;;;21.60;92.50;;;;;;5088665;28;20443;-55
2022/08/15 02:17:51;;;;;;;8.10;7.50;;;21.70;92.60;;;;;;5089716;28;20044;-51
2022/08/15 02:20:18;;;;;;;;;;;21.60;92.50;;;;;;5062160;28;20039;-56
2022/08/15 02:22:44;;;;;;;9.50;8.52;;;21.50;92.80;;;;;;5075038;28;19916;-53
2022/08/15 02:25:09;;;;;;;10.55;9.55;;;21.50;92.70;;;;;;5085700;28;20485;-55
2022/08/15 02:27:38;;;;;;;;;;;21.50;93.00;;;;;;5078506;28;20040;-53
2022/08/15 02:30:13;;;;;;;10.07;8.15;;;21.50;93.20;;;;;;5079284;28;19922;-55
2022/08/15 02:32:40;;;;;;;8.70;7.90;;;21.40;92.80;;;;;;5080980;28;20024;-55
2022/08/15 02:35:07;;;;;;;8.48;7.78;;;21.40;92.70;;;;;;5083519;28;20119;-51
2022/08/15 02:37:33;;;;;;;8.48;6.97;;;21.30;92.90;;;;;;5085638;28;20040;-51
2022/08/15 02:39:59;;;;;;;;;;;21.30;92.80;;;;;;5084828;28;20094;-54
2022/08/15 02:42:25;;;;;;;9.48;8.55;;;21.20;93.00;;;;;;5073396;28;19916;-54
2022/08/15 02:44:51;;;;;;;10.07;9.20;;;21.30;92.90;;;;;;5056017;28;20059;-57
2022/08/15 02:47:18;;;;;;;;;;;21.30;93.00;;;;;;5082550;28;20048;-56
2022/08/15 02:49:45;;;;;;;9.77;8.75;;;21.30;92.70;;;;;;5071862;28;20447;-53
2022/08/15 02:52:12;;;;;;;10.02;9.18;;;21.30;92.90;;;;;;5059047;28;20074;-56
2022/08/15 02:54:38;;;;;;;9.73;8.63;;;21.30;93.10;;;;;;5071236;28;20036;-51
2022/08/15 02:57:04;;;;;;;8.75;7.95;;;21.30;93.00;;;;;;5087515;28;20460;-56
2022/08/15 02:59:30;;;;;;;9.45;8.05;;;21.20;92.60;;;;;;5072044;28;20094;-56
2022/08/15 03:01:57;;;;;;;;;;;21.10;92.60;;;;;;5076003;28;20506;-51
2022/08/15 03:04:23;;;;;;;8.40;7.70;;;21.00;93.00;;;;;;5081861;28;19935;-53
2022/08/15 03:06:53;;;;;;;9.90;9.10;;;20.90;92.90;;;;;;5074176;28;20119;-53
2022/08/15 03:09:20;;;;;;;7.68;6.97;;;20.90;93.30;;;;;;5086199;28;20427;-50
2022/08/15 03:11:46;;;;;;;8.88;8.15;;;20.80;93.20;;;;;;5073509;28;20094;-55
2022/08/15 03:14:14;;;;;;;;;;;20.80;93.40;;;;;;5089499;28;20039;-55
2022/08/15 03:16:43;;;;;;;9.63;8.63;;;20.70;93.90;;;;;;5087889;28;19923;-50
2022/08/15 03:19:18;;;;;;;8.98;8.18;;;20.70;93.90;;;;;;5087163;28;20115;-55
2022/08/15 03:21:45;;;;;;;9.15;8.25;;;20.70;94.10;;;;;;5074696;28;20490;-51
2022/08/15 03:24:12;;;;;;;8.15;7.43;;;20.60;94.10;;;;;;5088976;28;20252;-57
2022/08/15 03:26:38;;;;;;;8.05;7.30;;;20.60;93.20;;;;;;5079921;28;20076;-49
2022/08/15 03:29:03;;;;;;;;;;;20.40;93.10;;;;;;5085556;28;20067;-51
2022/08/15 03:31:29;;;;;;;9.68;8.07;;;20.30;93.10;;;;;;5078370;28;20364;-52
2022/08/15 03:33:55;;;;;;;;;;;20.20;93.20;;;;;;5084326;28;20044;-54
2022/08/15 03:36:22;;;;;;;7.28;6.65;;;20.10;93.10;;;;;;5079326;28;20362;-54
2022/08/15 03:38:49;;;;;;;10.85;7.65;;;20.10;93.40;;;;;;5089322;28;20036;-54
2022/08/15 03:41:15;;;;;;;;;;;20.00;94.00;;;;;;5089744;28;20154;-56
2022/08/15 03:43:43;;;;;;;9.63;8.45;;;20.00;95.00;;;;;;5080923;28;19916;-55
2022/08/15 03:46:13;;;;;;;18.30;8.85;;;20.00;94.70;;;;;;5074953;28;20131;-52
2022/08/15 03:48:44;;;;;;;10.95;7.75;;;20.00;94.80;;;;;;5085446;28;20036;-52
2022/08/15 03:51:11;;;;;;;8.60;7.78;;;20.10;94.90;;;;;;5072292;28;20328;-53
2022/08/15 03:53:43;;;;;;;8.10;7.40;;;20.10;95.00;;;;;;5081182;28;20036;-56
2022/08/15 03:56:11;;;;;;;7.40;6.60;;;20.10;95.00;;;;;;5088028;28;20121;-53
2022/08/15 03:58:38;;;;;;;7.68;6.95;;;20.10;95.00;;;;;;5074124;28;20039;-51
2022/08/15 04:01:11;;;;;;;8.07;7.38;;;20.10;94.80;;;;;;5087105;28;20044;-57
2022/08/15 04:03:37;;;;;;;8.73;7.03;;;20.10;94.90;;;;;;5080791;28;20040;-52
2022/08/15 04:06:10;;;;;;;7.85;7.20;;;20.10;94.80;;;;;;5082414;28;21675;-53
2022/08/15 04:08:36;;;;;;;8.05;7.35;;;20.10;94.80;;;;;;5092942;28;20493;-54
2022/08/15 04:11:05;;;;;;;8.15;7.38;;;20.10;94.20;;;;;;5088847;28;20484;-54
2022/08/15 04:13:31;;;;;;;8.93;8.10;;;19.90;94.10;;;;;;5072299;28;20079;-53
2022/08/15 04:15:59;;;;;;;;;;;19.90;94.80;;;;;;5081098;28;20397;-51
2022/08/15 04:18:25;;;;;;;7.65;6.95;;;19.80;94.90;;;;;;5076703;28;19969;-55
2022/08/15 04:20:55;;;;;;;9.05;8.23;;;19.70;94.80;;;;;;5085221;28;20072;-51
2022/08/15 04:23:21;;;;;;;8.18;7.57;;;19.80;94.90;;;;;;5078459;28;20045;-54
2022/08/15 04:25:46;;;;;;;7.30;6.68;;;19.80;95.00;;;;;;5090640;28;20259;-52
2022/08/15 04:28:15;;;;;;;9.20;8.35;;;19.70;95.00;;;;;;5079451;28;20043;-53
2022/08/15 04:30:42;;;;;;;9.60;8.40;;;19.80;95.20;;;;;;5084840;28;20532;-54
2022/08/15 04:33:30;;;;;;;11.65;8.63;;;19.80;95.30;;;;;;5080677;28;20036;-51
2022/08/15 04:36:13;;;;;;;9.93;7.35;;;19.90;95.60;;;;;;5076463;28;20039;-55
2022/08/15 04:38:41;;;;;;;8.60;7.80;;;19.90;95.80;;;;;;5080062;28;20505;-54
2022/08/15 04:41:08;;;;;;;9.73;8.82;;;19.80;95.80;;;;;;5087861;28;20032;-53
2022/08/15 04:43:35;;;;;;;11.02;8.15;;;19.90;96.10;;;;;;5090541;28;20290;-56
2022/08/15 04:46:02;;;;;;;10.23;9.32;;;19.90;96.10;;;;;;5085626;28;20115;-53
2022/08/15 04:48:30;;;;;;;8.43;7.72;;;19.90;96.10;;;;;;5091769;28;20050;-54
2022/08/15 04:50:57;;;;;;;8.45;7.82;;;19.90;95.80;;;;;;5086337;28;20041;-51
2022/08/15 04:53:25;;;;;;;11.35;8.40;;;19.90;95.80;;;;;;5085206;28;20105;-51
2022/08/15 04:55:52;;;;;;;9.02;8.20;;;19.90;96.30;;;;;;5090551;28;20025;-54
2022/08/15 04:58:18;;;;;;;15.13;10.10;;;19.80;96.10;;;;;;5075467;28;20154;-53
2022/08/15 05:00:51;;;;;;;10.10;9.13;;;19.80;96.20;;;;;;5082888;28;20107;-50
2022/08/15 05:03:19;;;;;;;10.05;9.23;;;19.80;96.60;;;;;;5086515;28;20032;-50
2022/08/15 05:05:48;;;;;;;13.98;10.30;;;19.80;96.80;;;;;;5061387;28;20051;-54
2022/08/15 05:08:14;;;;;;;16.92;12.57;;;19.80;97.00;;;;;;5090416;28;20042;-51
2022/08/15 05:10:40;;;;;;;12.20;11.00;;;19.80;97.10;;;;;;5085569;28;20039;-53
2022/08/15 05:13:14;;;;;;;12.07;10.98;;;19.80;97.30;;;;;;5080726;28;20523;-52
2022/08/15 05:15:42;;;;;;;12.10;10.95;;;19.90;97.50;;;;;;5087381;28;20090;-50
2022/08/15 05:18:08;;;;;;;12.07;10.98;;;19.90;97.30;;;;;;5084082;28;20109;-51
2022/08/15 05:20:34;;;;;;;;;;;20.00;97.30;;;;;;5089760;28;20036;-54
2022/08/15 05:23:08;;;;;;;12.40;11.25;;;20.00;97.60;;;;;;5087643;28;19916;-51
2022/08/15 05:25:38;;;;;;;11.85;10.85;;;20.10;97.20;;;;;;5079385;28;20035;-51
2022/08/15 05:28:05;;;;;;;14.18;11.77;;;20.20;96.90;;;;;;5079609;28;20433;-51
2022/08/15 05:30:31;;;;;;;13.18;11.88;;;20.30;96.60;;;;;;5075324;28;20136;-51
2022/08/15 05:33:12;;;;;;;13.93;12.52;;;20.30;96.60;;;;;;5080744;28;20436;-51
2022/08/15 05:35:41;;;;;;;13.07;11.68;;;20.30;96.50;;;;;;5088254;28;20063;-52
2022/08/15 05:38:21;;;;;;;14.75;12.77;;;20.40;96.60;;;;;;5084671;28;20032;-56
2022/08/15 05:41:14;;;;;;;13.05;11.75;;;20.40;96.90;;;;;;5072731;28;20028;-55
2022/08/15 05:43:42;;;;;;;13.93;12.70;;;20.40;96.90;;;;;;5083127;28;20096;-55
2022/08/15 05:46:26;;;;;;;13.95;12.57;;;20.50;97.10;;;;;;5061281;28;20044;-56
2022/08/15 05:49:07;;;;;;;12.68;11.38;;;20.50;97.10;;;;;;5079697;28;20047;-54
2022/08/15 05:51:44;;;;;;;15.38;13.07;;;20.60;96.80;;;;;;5081234;28;20163;-56
2022/08/15 05:54:46;;;;;;;14.82;12.60;;;20.60;96.70;;;;;;5080740;28;20390;-56
2022/08/15 05:57:18;;;;;;;15.52;12.65;;;20.70;96.60;;;;;;5076701;28;20040;-56
2022/08/15 05:59:50;;;;;;;13.63;12.30;;;20.70;96.50;;;;;;5083637;28;20078;-54
2022/08/15 06:02:57;;;;;;;19.70;12.05;;;20.80;96.60;;;;;;5086930;28;20032;-54
2022/08/15 06:05:45;;;;;;;13.77;12.48;;;20.90;97.20;;;;;;5074371;28;20051;-56
2022/08/15 06:08:18;;;;;;;21.77;13.38;;;20.90;96.90;;;;;;5083149;28;20501;-56
2022/08/15 06:11:01;;;;;;;18.58;13.15;;;21.00;96.50;;;;;;5090671;28;20042;-56
2022/08/15 06:13:35;;;;;;;21.13;12.70;;;21.10;96.60;;;;;;5082538;28;20032;-54
2022/08/15 06:16:19;;;;;;;13.93;12.60;;;21.10;96.50;;;;;;5086497;28;20036;-56
2022/08/15 06:18:46;;;;;;;15.70;11.77;;;21.20;96.60;;;;;;5079860;28;20039;-53
2022/08/15 06:21:26;;;;;;;12.98;11.63;;;21.20;96.40;;;;;;5081760;28;20055;-54
2022/08/15 06:24:18;;;;;;;15.02;12.90;;;21.20;96.50;;;;;;5084786;28;20123;-52
2022/08/15 06:27:03;;;;;;;13.75;12.38;;;21.20;96.60;;;;;;5038629;28;20052;-54
2022/08/15 06:29:41;;;;;;;14.70;12.40;;;21.30;96.40;;;;;;5077786;28;20031;-57
2022/08/15 06:32:12;;;;;;;15.68;12.15;;;21.30;96.20;;;;;;5081358;28;20044;-57
2022/08/15 06:34:47;;;;;;;15.95;13.68;;;21.40;96.10;;;;;;5086415;28;20481;-55
2022/08/15 06:37:25;;;;;;;14.35;13.02;;;21.40;96.10;;;;;;5087059;28;20052;-53
2022/08/15 06:40:06;;;;;;;15.40;12.85;;;21.40;96.10;;;;;;5078457;28;20036;-53
2022/08/15 06:42:35;;;;;;;14.23;12.85;;;21.50;96.30;;;;;;5090151;28;20047;-53
2022/08/15 06:45:07;;;;;;;15.90;14.30;;;21.50;96.40;;;;;;5087872;28;20056;-57
2022/08/15 06:47:33;;;;;;;17.15;12.18;;;21.60;96.60;;;;;;5089072;28;20063;-54
2022/08/15 06:50:07;;;;;;;16.25;13.68;;;21.60;96.30;;;;;;5089856;28;20477;-55
2022/08/15 06:52:34;;;;;;;14.95;13.27;;;21.70;96.30;;;;;;5090089;28;20039;-54
2022/08/15 06:54:59;;;;;;;14.25;12.82;;;21.80;96.00;;;;;;5080343;28;20432;-54
2022/08/15 06:57:37;;;;;;;;;;;21.80;96.00;;;;;;5076651;28;20533;-55
2022/08/15 07:00:34;;;;;;;14.18;12.43;;;21.90;96.40;;;;;;5089464;28;19994;-55
2022/08/15 07:03:39;;;;;;;14.65;13.02;;;21.90;95.70;;;;;;5074445;28;20115;-53
2022/08/15 07:06:10;;;;;;;16.85;13.10;;;22.00;95.50;;;;;;5063791;28;20040;-53
2022/08/15 07:09:01;;;;;;;13.57;12.27;;;22.00;95.10;;;;;;5074128;28;20400;-52
2022/08/15 07:11:37;;;;;;;14.73;13.23;;;22.10;95.40;;;;;;5082639;28;20478;-52
2022/08/15 07:14:06;;;;;;;13.80;12.50;;;22.10;95.50;;;;;;5072627;28;20481;-55
2022/08/15 07:16:47;;;;;;;14.63;13.07;;;22.20;95.00;;;;;;5074975;28;20445;-57
2022/08/15 07:19:13;;;;;;;14.50;13.00;;;22.40;95.10;;;;;;5071725;28;20037;-55
2022/08/15 07:21:39;;;;;;;13.25;11.63;;;22.50;95.10;;;;;;5070959;28;20124;-56
2022/08/15 07:24:05;;;;;;;;;;;22.50;94.70;;;;;;5054743;28;20119;-53
2022/08/15 07:26:39;;;;;;;14.48;12.18;;;22.60;94.50;;;;;;5070161;28;19920;-51
2022/08/15 07:29:12;;;;;;;11.77;10.77;;;22.70;94.60;;;;;;5083496;28;20093;-52
2022/08/15 07:31:38;;;;;;;14.48;11.30;;;22.70;94.20;;;;;;5074953;28;20452;-53
2022/08/15 07:34:13;;;;;;;13.15;11.88;;;22.70;94.00;;;;;;5075938;28;20028;-55
2022/08/15 07:36:59;;;;;;;21.17;12.75;;;22.70;94.20;;;;;;5083416;28;20036;-51
2022/08/15 07:39:27;;;;;;;13.27;11.97;;;22.80;93.90;;;;;;5072648;28;20124;-52
2022/08/15 07:41:53;;;;;;;14.40;12.52;;;22.90;93.70;;;;;;5085556;28;20047;-54
2022/08/15 07:44:27;;;;;;;14.05;12.75;;;22.90;93.70;;;;;;5081691;28;20119;-55
2022/08/15 07:47:10;;;;;;;12.52;11.07;;;23.00;93.60;;;;;;5084016;28;20417;-57
2022/08/15 07:49:37;;;;;;;12.93;11.35;;;23.10;93.40;;;;;;5083166;28;20173;-50
2022/08/15 07:52:33;;;;;;;16.45;12.57;;;23.20;93.40;;;;;;5086683;28;20036;-55
2022/08/15 07:55:16;;;;;;;15.73;12.68;;;23.30;93.30;;;;;;4988488;28;20114;-55
2022/08/15 07:57:59;;;;;;;16.58;12.35;;;23.40;93.40;;;;;;4987080;28;20121;-51
2022/08/15 08:00:28;;;;;;;15.07;12.02;;;23.50;92.60;;;;;;4983867;28;20128;-52
2022/08/15 08:03:08;;;;;;;13.27;12.07;;;23.50;92.60;;;;;;4986545;28;20046;-51
2022/08/15 08:05:57;;;;;;;22.30;13.88;;;23.60;92.60;;;;;;4985069;28;20129;-54
2022/08/15 08:08:44;;;;;;;15.45;11.68;;;23.60;92.80;;;;;;4985714;28;20085;-51
2022/08/15 08:11:38;;;;;;;14.45;12.48;;;23.60;92.40;;;;;;4988291;28;20058;-52
2022/08/15 08:14:29;;;;;;;13.02;11.55;;;23.70;92.20;;;;;;4988207;28;20049;-54
2022/08/15 08:17:21;;;;;;;13.35;11.88;;;23.80;91.80;;;;;;4957949;28;20178;-52
2022/08/15 08:19:55;;;;;;;13.20;11.88;;;23.90;91.70;;;;;;4987418;28;20071;-51
2022/08/15 08:22:44;;;;;;;255.63;31.00;;;23.90;91.80;;;;;;4985904;28;20560;-52
2022/08/15 08:25:37;;;;;;;13.57;12.15;;;24.00;91.50;;;;;;4986161;28;20054;-55
2022/08/15 08:28:17;;;;;;;24.48;12.60;;;24.10;90.90;;;;;;4985761;28;20599;-49
2022/08/15 08:31:02;;;;;;;17.05;12.45;;;24.20;91.00;;;;;;5009585;28;20044;-54
2022/08/15 08:33:34;;;;;;;16.65;11.93;;;24.30;90.50;;;;;;5076240;28;20028;-53
2022/08/15 08:36:20;;;;;;;14.18;12.70;;;24.40;90.40;;;;;;5088310;28;20121;-52
2022/08/15 08:38:55;;;;;;;13.30;12.13;;;24.30;89.20;;;;;;5081846;28;20036;-54
2022/08/15 08:41:42;;;;;;;18.10;12.88;;;24.30;89.80;;;;;;5081786;28;20044;-53
2022/08/15 08:44:42;;;;;;;12.63;11.35;;;24.30;90.10;;;;;;5074792;28;20748;-54
2022/08/15 08:47:58;;;;;;;19.92;12.95;;;24.20;90.00;;;;;;5058282;28;20040;-53
2022/08/15 08:50:42;;;;;;;14.48;12.68;;;24.30;90.10;;;;;;4968810;28;20175;-52
2022/08/15 08:53:19;;;;;;;15.88;14.20;;;24.30;90.40;;;;;;4976240;28;20039;-53
2022/08/15 08:55:57;;;;;;;14.50;13.05;;;24.30;90.50;;;;;;5041290;28;20052;-53
2022/08/15 08:58:30;;;;;;;17.63;12.95;;;24.50;90.20;;;;;;5082817;28;20064;-52
2022/08/15 09:00:57;;;;;;;21.20;13.80;;;24.60;89.70;;;;;;5059741;28;20044;-54
2022/08/15 09:03:29;;;;;;;19.58;13.73;;;24.50;89.50;;;;;;5087085;28;20563;-54
2022/08/15 09:05:57;;;;;;;14.02;12.85;;;24.50;89.00;;;;;;5090524;28;20097;-55
2022/08/15 09:08:51;;;;;;;23.70;13.70;;;24.50;88.90;;;;;;5089354;28;20039;-53
2022/08/15 09:11:35;;;;;;;16.83;13.55;;;24.50;88.70;;;;;;5087657;28;20040;-57
2022/08/15 09:14:22;;;;;;;30.65;13.88;;;24.40;88.70;;;;;;5078712;28;20451;-53
2022/08/15 09:16:51;;;;;;;15.82;13.40;;;24.40;88.60;;;;;;5083251;28;20078;-54
2022/08/15 09:19:25;;;;;;;61.67;15.77;;;24.40;88.60;;;;;;5074858;28;20093;-53
2022/08/15 09:21:52;;;;;;;13.27;12.02;;;24.40;88.40;;;;;;5075059;28;20048;-51
2022/08/15 09:24:20;;;;;;;22.55;14.38;;;24.30;88.70;;;;;;5075260;28;20032;-54
2022/08/15 09:27:20;;;;;;;16.90;14.98;;;24.40;88.60;;;;;;5076409;28;20078;-57
2022/08/15 09:29:52;;;;;;;17.50;14.70;;;24.40;88.30;;;;;;5076405;28;20120;-55
2022/08/15 09:32:28;;;;;;;16.90;14.95;;;24.30;88.60;;;;;;5073359;28;20032;-55
2022/08/15 09:35:00;;;;;;;16.83;15.32;;;24.40;88.30;;;;;;5081609;28;20043;-57
2022/08/15 09:37:46;;;;;;;17.13;15.45;;;24.40;88.50;;;;;;5083461;28;20036;-53
2022/08/15 09:40:25;;;;;;;19.15;16.55;;;24.40;88.40;;;;;;5081880;28;20044;-55
2022/08/15 09:43:24;;;;;;;15.88;14.40;;;24.40;88.10;;;;;;5073895;28;20059;-53
2022/08/15 09:45:56;;;;;;;19.65;15.02;;;24.40;88.30;;;;;;5078858;28;20110;-58
2022/08/15 09:48:44;;;;;;;22.80;17.45;;;24.40;88.10;;;;;;5081194;28;20040;-56
2022/08/15 09:51:33;;;;;;;23.13;16.77;;;24.30;87.50;;;;;;5088744;28;20032;-53
2022/08/15 09:54:22;;;;;;;21.02;17.80;;;24.30;87.70;;;;;;5057207;28;20037;-52
2022/08/15 09:56:49;;;;;;;23.00;19.65;;;24.20;88.00;;;;;;5080023;28;20051;-51
2022/08/15 09:59:19;;;;;;;19.20;16.67;;;24.20;87.60;;;;;;5076554;28;20032;-54
2022/08/15 10:01:53;;;;;;;24.63;17.60;;;24.20;87.60;;;;;;5084160;28;20136;-55
2022/08/15 10:04:23;;;;;;;20.77;17.48;;;24.20;88.00;;;;;;5079606;28;20068;-50
2022/08/15 10:07:00;;;;;;;21.65;18.67;;;24.20;88.00;;;;;;5068985;28;20506;-54
2022/08/15 10:09:31;;;;;;;23.30;19.00;;;24.30;87.80;;;;;;5082120;28;20028;-52
2022/08/15 10:12:17;;;;;;;20.98;17.17;;;24.30;87.90;;;;;;5085059;28;20088;-53
2022/08/15 10:14:51;;;;;;;22.80;20.45;;;24.30;88.10;;;;;;5073600;28;20040;-56
2022/08/15 10:17:28;;;;;;;22.63;20.23;;;24.30;88.10;;;;;;5081868;28;20594;-53
2022/08/15 10:19:56;;;;;;;26.42;22.67;;;24.30;87.60;;;;;;5076257;28;20044;-53
2022/08/15 10:22:22;;;;;;;21.95;19.48;;;24.30;87.10;;;;;;5074016;28;20048;-54
2022/08/15 10:25:15;;;;;;;24.13;21.52;;;24.30;87.40;;;;;;5073316;28;20286;-52
2022/08/15 10:27:58;;;;;;;27.77;22.15;;;24.30;87.40;;;;;;5078250;28;20037;-55
2022/08/15 10:30:30;;;;;;;27.30;22.83;;;24.40;88.10;;;;;;5087112;28;20036;-53
2022/08/15 10:32:57;;;;;;;26.20;23.30;;;24.40;87.30;;;;;;5088100;28;20040;-52
2022/08/15 10:35:41;;;;;;;30.15;23.63;;;24.40;87.00;;;;;;5077298;28;20055;-54
2022/08/15 10:38:09;;;;;;;26.50;22.80;;;24.40;87.00;;;;;;5076015;28;20036;-54
2022/08/15 10:40:45;;;;;;;24.45;21.83;;;24.40;87.30;;;;;;5076283;28;20127;-55
2022/08/15 10:43:19;;;;;;;26.42;23.52;;;24.40;87.30;;;;;;5068783;28;20119;-54
2022/08/15 10:46:17;;;;;;;26.65;23.85;;;24.40;87.80;;;;;;5080838;28;20104;-55
2022/08/15 10:48:56;;;;;;;25.67;22.98;;;24.50;87.70;;;;;;5080268;28;20036;-53
2022/08/15 10:51:47;;;;;;;25.88;22.65;;;24.60;87.80;;;;;;5087624;28;20032;-52
2022/08/15 10:54:34;;;;;;;24.73;22.13;;;24.60;87.80;;;;;;5081528;28;20067;-54
2022/08/15 10:57:02;;;;;;;27.70;20.15;;;24.70;87.80;;;;;;5074092;28;20048;-55
2022/08/15 10:59:35;;;;;;;24.30;21.80;;;24.70;88.10;;;;;;5082155;28;20043;-53
2022/08/15 11:02:16;;;;;;;24.95;22.13;;;24.90;87.40;;;;;;5056710;28;20041;-50
2022/08/15 11:04:43;;;;;;;28.15;22.55;;;24.90;87.40;;;;;;5075523;28;20040;-54
2022/08/15 11:07:27;;;;;;;26.10;22.92;;;25.00;87.80;;;;;;5083921;28;20055;-54
2022/08/15 11:09:55;;;;;;;24.30;21.80;;;25.10;87.30;;;;;;5071818;28;20033;-50
2022/08/15 11:12:23;;;;;;;23.73;21.42;;;25.10;87.20;;;;;;5089465;28;20036;-51
2022/08/15 11:14:55;;;;;;;23.73;21.35;;;25.10;87.10;;;;;;5088839;28;20032;-54
2022/08/15 11:17:24;;;;;;;26.08;23.35;;;25.10;87.00;;;;;;5082859;28;20041;-52
2022/08/15 11:19:57;;;;;;;24.65;21.75;;;25.20;87.00;;;;;;5084266;28;20079;-52
2022/08/15 11:22:37;;;;;;;26.33;23.58;;;25.20;87.10;;;;;;5079797;28;20424;-51
2022/08/15 11:25:13;;;;;;;26.67;22.52;;;25.30;86.20;;;;;;5086922;28;20123;-53
2022/08/15 11:27:38;;;;;;;27.60;22.17;;;25.30;86.30;;;;;;5074300;28;20036;-52
2022/08/15 11:30:08;;;;;;;25.98;23.20;;;25.30;87.30;;;;;;5087874;28;20146;-55
2022/08/15 11:32:38;;;;;;;25.42;22.83;;;25.40;86.90;;;;;;5089506;28;20043;-52
2022/08/15 11:35:20;;;;;;;26.92;24.23;;;25.40;86.80;;;;;;5081431;28;20032;-52
2022/08/15 11:37:45;;;;;;;23.10;20.75;;;25.50;86.70;;;;;;5085886;28;20460;-53
2022/08/15 11:40:24;;;;;;;25.38;22.77;;;25.60;86.50;;;;;;5091884;28;20119;-54
2022/08/15 11:42:50;;;;;;;24.88;21.85;;;25.70;86.60;;;;;;5081827;28;20543;-53
2022/08/15 11:45:18;;;;;;;26.27;23.65;;;25.70;86.60;;;;;;5082109;28;20499;-52
2022/08/15 11:47:47;;;;;;;24.33;21.80;;;25.80;87.00;;;;;;5084324;28;20040;-53
2022/08/15 11:50:27;;;;;;;23.35;21.02;;;25.90;86.60;;;;;;5085419;28;20071;-52
2022/08/15 11:52:57;;;;;;;20.33;18.40;;;26.00;86.00;;;;;;5089267;28;20032;-54
2022/08/15 11:55:25;;;;;;;25.40;20.15;;;26.10;86.40;;;;;;5084494;28;20031;-50
2022/08/15 11:57:55;;;;;;;21.58;18.30;;;26.10;86.30;;;;;;5081023;28;20089;-56
2022/08/15 12:00:38;;;;;;;18.00;15.15;;;26.40;86.80;;;;;;5078570;28;20520;-52
2022/08/15 12:03:19;;;;;;;20.15;17.27;;;26.60;87.10;;;;;;5075405;28;20040;-57
2022/08/15 12:05:45;;;;;;;21.58;18.40;;;26.80;86.90;;;;;;5081398;28;20040;-57
2022/08/15 12:08:11;;;;;;;18.17;16.38;;;26.90;86.20;;;;;;5077522;28;20043;-58
2022/08/15 12:10:43;;;;;;;17.38;15.57;;;27.00;85.60;;;;;;5078352;28;20036;-59
2022/08/15 12:13:16;;;;;;;17.48;14.88;;;27.10;85.90;;;;;;5065955;28;20046;-59
2022/08/15 12:15:44;;;;;;;17.45;14.18;;;27.30;85.70;;;;;;5080165;28;20135;-58
2022/08/15 12:18:12;;;;;;;17.30;15.43;;;27.40;85.60;;;;;;5082223;28;20036;-58
2022/08/15 12:20:46;;;;;;;17.23;15.23;;;27.40;85.70;;;;;;5073838;28;20036;-59
2022/08/15 12:23:36;;;;;;;26.63;16.02;;;27.50;85.40;;;;;;5079057;28;20044;-58
2022/08/15 12:26:13;;;;;;;18.70;15.68;;;27.50;84.90;;;;;;5089902;28;20107;-59
2022/08/15 12:28:41;;;;;;;18.42;15.57;;;27.40;83.50;;;;;;5086063;28;20044;-58
2022/08/15 12:31:39;;;;;;;16.25;14.57;;;27.30;84.00;;;;;;5081379;28;20054;-56
2022/08/15 12:34:10;;;;;;;15.40;13.80;;;27.30;83.70;;;;;;5091710;28;20035;-58
2022/08/15 12:36:37;;;;;;;14.90;12.48;;;27.20;83.90;;;;;;5074806;28;20043;-57
2022/08/15 12:39:03;;;;;;;18.88;14.13;;;27.20;84.10;;;;;;5075883;28;20036;-60
2022/08/15 12:41:30;;;;;;;18.77;13.07;;;27.30;84.00;;;;;;5076282;28;20386;-54
2022/08/15 12:43:56;;;;;;;16.05;14.40;;;27.30;83.80;;;;;;5082381;28;20044;-53
2022/08/15 12:46:21;;;;;;;16.20;14.50;;;27.30;83.40;;;;;;5091214;28;20038;-53
2022/08/15 12:48:48;;;;;;;15.63;14.25;;;27.30;83.50;;;;;;5091997;28;20032;-57
2022/08/15 12:51:15;;;;;;;17.55;15.45;;;27.30;83.70;;;;;;5091800;28;20085;-57
2022/08/15 12:53:41;;;;;;;18.23;14.80;;;27.30;84.00;;;;;;5085933;28;20107;-57
2022/08/15 12:56:08;;;;;;;17.08;15.45;;;27.30;84.40;;;;;;5082645;28;20506;-55
2022/08/15 12:58:36;;;;;;;21.05;17.88;;;27.30;84.30;;;;;;5091394;28;20742;-58
2022/08/15 13:01:05;;;;;;;19.70;17.33;;;27.30;84.20;;;;;;5078811;28;20044;-57
2022/08/15 13:03:33;;;;;;;17.98;16.15;;;27.20;83.80;;;;;;5076214;28;20041;-57
2022/08/15 13:06:07;;;;;;;21.63;15.05;;;27.20;84.00;;;;;;5080521;28;20041;-57
2022/08/15 13:08:33;;;;;;;21.42;15.32;;;27.10;84.00;;;;;;5072524;28;20524;-56
2022/08/15 13:10:59;;;;;;;12.73;11.52;;;27.20;83.60;;;;;;5082137;28;20029;-58